Time;durP1;ratioP1;P1;durP2;ratioP2;P2;SDS_P1;SDS_P2;PMS_P1;PMS_P2;Temp;Humidity;BMP_temperature;BMP_pressure;BME280_temperature;BME280_humidity;BME280_pressure;Samples;Min_cycle;Max_cycle;Signal;HPM_P1;HPM_P2
2023/11/18 00:01:05;;;;;;;5.67;1.50;;;23.90;50.60;;;;;;4993893;28;20177;-73
2023/11/18 00:03:32;;;;;;;5.63;1.30;;;23.90;50.70;;;;;;4991852;28;20197;-72
2023/11/18 00:05:59;;;;;;;3.33;1.20;;;23.50;51.60;;;;;;4992630;28;20229;-72
2023/11/18 00:08:27;;;;;;;4.17;1.30;;;23.30;52.10;;;;;;4991714;28;20182;-72
2023/11/18 00:10:54;;;;;;;7.33;1.40;;;23.30;53.20;;;;;;4992589;28;20273;-73
2023/11/18 00:13:22;;;;;;;2.83;1.00;;;23.30;54.00;;;;;;4992080;28;20186;-72
2023/11/18 00:15:49;;;;;;;6.10;1.47;;;22.90;54.70;;;;;;4990072;28;20379;-70
2023/11/18 00:18:16;;;;;;;4.33;1.27;;;22.80;55.10;;;;;;4985134;28;20660;-72
2023/11/18 00:20:44;;;;;;;5.53;1.40;;;22.80;55.70;;;;;;4992356;28;20178;-72
2023/11/18 00:23:11;;;;;;;5.57;1.40;;;22.80;55.60;;;;;;4991985;28;20240;-73
2023/11/18 00:25:39;;;;;;;10.00;2.23;;;22.90;55.30;;;;;;4992933;28;20543;-73
2023/11/18 00:28:07;;;;;;;4.30;1.40;;;23.20;55.40;;;;;;4997123;28;20193;-72
2023/11/18 00:30:35;;;;;;;7.10;1.37;;;23.10;55.50;;;;;;4996394;28;20181;-72
2023/11/18 00:33:02;;;;;;;9.33;1.53;;;23.00;56.10;;;;;;4995591;28;20209;-72
2023/11/18 00:35:31;;;;;;;6.40;1.70;;;22.80;56.20;;;;;;4994329;28;20184;-72
2023/11/18 00:37:59;;;;;;;3.63;1.37;;;22.80;56.80;;;;;;4990911;28;20212;-73
2023/11/18 00:40:29;;;;;;;8.43;1.30;;;22.70;57.20;;;;;;4997966;28;20170;-73
2023/11/18 00:42:57;;;;;;;5.60;0.97;;;22.60;56.90;;;;;;4989087;28;20174;-73
2023/11/18 00:45:24;;;;;;;6.70;1.10;;;22.90;57.40;;;;;;4995963;28;20188;-72
2023/11/18 00:47:52;;;;;;;1.97;1.10;;;23.70;54.80;;;;;;4989942;28;20192;-73
2023/11/18 00:50:19;;;;;;;7.17;1.37;;;23.60;54.60;;;;;;4994688;28;20534;-71
2023/11/18 00:52:49;;;;;;;7.43;1.20;;;23.70;54.20;;;;;;4994420;28;20178;-72
2023/11/18 00:55:20;;;;;;;6.50;1.63;;;24.00;54.50;;;;;;4993588;28;20655;-72
2023/11/18 00:57:47;;;;;;;6.43;1.23;;;24.60;52.30;;;;;;4995063;28;20225;-72
2023/11/18 01:00:21;;;;;;;5.70;1.37;;;24.80;51.30;;;;;;4979415;28;20178;-72
2023/11/18 01:02:49;;;;;;;6.23;1.70;;;24.70;51.20;;;;;;4994171;28;20197;-73
2023/11/18 01:05:17;;;;;;;7.27;1.30;;;24.80;52.30;;;;;;4995257;28;20317;-74
2023/11/18 01:07:44;;;;;;;8.30;1.20;;;25.30;50.90;;;;;;4992469;28;20193;-73
2023/11/18 01:10:13;;;;;;;5.27;1.30;;;25.40;49.60;;;;;;4993316;28;20565;-70
2023/11/18 01:12:41;;;;;;;3.80;1.00;;;25.40;49.40;;;;;;4993749;28;20193;-72
2023/11/18 01:15:10;;;;;;;2.57;1.20;;;24.70;50.90;;;;;;4992797;28;20666;-73
2023/11/18 01:17:38;;;;;;;9.27;1.77;;;24.80;50.70;;;;;;4993072;28;20256;-72
2023/11/18 01:20:10;;;;;;;5.83;1.43;;;24.80;50.50;;;;;;4995172;28;20576;-71
2023/11/18 01:22:39;;;;;;;4.13;1.00;;;25.30;49.60;;;;;;4995074;28;20182;-71
2023/11/18 01:25:08;;;;;;;2.83;1.23;;;25.10;49.80;;;;;;4994699;28;20193;-73
2023/11/18 01:27:36;;;;;;;4.70;1.30;;;24.90;49.80;;;;;;4994980;28;20193;-72
2023/11/18 01:30:04;;;;;;;5.67;1.13;;;24.90;50.60;;;;;;4994720;28;20189;-69
2023/11/18 01:32:31;;;;;;;5.30;1.10;;;25.10;49.50;;;;;;4995750;28;20540;-70
2023/11/18 01:34:59;;;;;;;3.97;0.97;;;25.10;49.80;;;;;;4995549;28;20193;-71
2023/11/18 01:37:26;;;;;;;5.10;1.30;;;24.90;50.20;;;;;;4994616;28;20560;-71
2023/11/18 01:39:53;;;;;;;7.07;1.23;;;25.10;50.00;;;;;;4994644;28;20189;-71
2023/11/18 01:42:21;;;;;;;5.27;1.20;;;25.20;49.40;;;;;;4995880;28;20174;-72
2023/11/18 01:44:48;;;;;;;3.43;1.20;;;25.30;49.30;;;;;;4990923;28;20561;-72
2023/11/18 01:47:16;;;;;;;6.17;1.27;;;25.80;49.20;;;;;;4995333;28;20166;-73
2023/11/18 01:49:44;;;;;;;6.60;1.40;;;25.40;48.70;;;;;;4977617;28;20540;-71
2023/11/18 01:52:12;;;;;;;2.17;0.90;;;25.60;48.50;;;;;;4995562;28;20707;-71
2023/11/18 01:54:40;;;;;;;9.23;1.33;;;25.70;48.20;;;;;;4993693;28;20248;-71
2023/11/18 01:57:09;;;;;;;5.67;0.93;;;25.40;48.30;;;;;;4995369;28;20222;-72
2023/11/18 01:59:37;;;;;;;4.67;1.40;;;25.50;48.60;;;;;;4978305;28;20189;-72
2023/11/18 02:02:05;;;;;;;3.93;1.20;;;25.60;48.70;;;;;;4995550;28;20190;-73
2023/11/18 02:04:33;;;;;;;9.43;1.23;;;25.70;49.00;;;;;;4992523;28;20194;-76
2023/11/18 02:07:03;;;;;;;3.73;1.30;;;26.20;47.10;;;;;;4976084;28;20182;-74
2023/11/18 02:09:31;;;;;;;3.57;1.03;;;26.30;47.40;;;;;;4994815;28;20186;-73
2023/11/18 02:12:01;;;;;;;3.73;1.50;;;25.60;48.60;;;;;;4975775;28;20190;-72
2023/11/18 02:14:30;;;;;;;5.77;1.57;;;25.90;48.40;;;;;;4993284;28;20209;-71
2023/11/18 02:17:03;;;;;;;7.80;1.70;;;25.50;48.00;;;;;;4993175;28;20234;-71
2023/11/18 02:19:31;;;;;;;5.50;1.27;;;25.60;48.40;;;;;;4994790;28;20197;-73
2023/11/18 02:22:00;;;;;;;3.60;1.07;;;25.70;48.20;;;;;;4992267;28;20178;-70
2023/11/18 02:24:30;;;;;;;5.97;1.20;;;25.30;48.30;;;;;;4993441;28;20284;-73
2023/11/18 02:27:01;;;;;;;3.63;1.10;;;25.40;48.60;;;;;;4993967;28;20634;-73
2023/11/18 02:29:35;;;;;;;3.33;1.33;;;25.50;47.80;;;;;;4993069;28;20640;-75
2023/11/18 02:32:22;;;;;;;3.17;1.10;;;25.60;48.50;;;;;;4992375;28;20648;-71
2023/11/18 02:35:05;;;;;;;3.67;1.60;;;25.60;48.30;;;;;;4993068;28;20192;-73
2023/11/18 02:37:33;;;;;;;3.10;1.10;;;25.70;48.20;;;;;;4975911;28;20321;-73
2023/11/18 02:40:14;;;;;;;4.37;1.10;;;25.80;48.00;;;;;;4993249;28;20177;-74
2023/11/18 02:42:44;;;;;;;4.43;1.30;;;26.00;46.40;;;;;;4976061;28;20194;-75
2023/11/18 02:45:16;;;;;;;4.97;0.90;;;26.10;47.00;;;;;;4992787;28;20182;-75
2023/11/18 02:47:47;;;;;;;6.87;1.50;;;25.80;47.40;;;;;;4992944;28;20193;-73
2023/11/18 02:50:15;;;;;;;4.20;1.20;;;26.10;47.00;;;;;;4990894;28;20174;-72
2023/11/18 02:52:43;;;;;;;4.83;1.30;;;26.50;45.50;;;;;;4993189;28;20209;-73
2023/11/18 02:55:11;;;;;;;5.70;1.27;;;26.00;46.70;;;;;;4991803;28;20644;-72
2023/11/18 02:57:39;;;;;;;3.83;1.27;;;26.00;47.30;;;;;;4976909;28;20268;-72
2023/11/18 03:00:19;;;;;;;5.87;1.87;;;25.50;47.50;;;;;;4994094;28;20637;-75
2023/11/18 03:02:47;;;;;;;8.77;1.47;;;25.20;49.10;;;;;;4994025;28;20189;-76
2023/11/18 03:05:15;;;;;;;4.43;1.33;;;25.80;47.70;;;;;;4994163;28;20632;-73
2023/11/18 03:07:44;;;;;;;7.87;1.40;;;25.60;47.60;;;;;;4994072;28;20185;-73
2023/11/18 03:10:20;;;;;;;2.97;1.20;;;25.80;48.10;;;;;;4994174;28;20210;-72
2023/11/18 03:12:54;;;;;;;2.67;1.10;;;26.20;47.00;;;;;;4978421;28;20185;-73
2023/11/18 03:15:23;;;;;;;7.27;1.20;;;26.30;47.20;;;;;;4993712;28;20226;-73
2023/11/18 03:17:51;;;;;;;3.23;1.00;;;26.30;46.30;;;;;;4993920;28;20213;-72
2023/11/18 03:20:20;;;;;;;6.57;1.30;;;26.40;46.30;;;;;;4987852;28;20644;-72
2023/11/18 03:22:49;;;;;;;4.07;1.30;;;26.80;45.70;;;;;;4992707;28;20182;-71
2023/11/18 03:25:19;;;;;;;9.97;1.47;;;26.30;46.80;;;;;;4992602;28;20173;-71
2023/11/18 03:27:46;;;;;;;5.90;1.20;;;26.30;46.10;;;;;;4999930;28;20272;-73
2023/11/18 03:30:14;;;;;;;1.87;0.80;;;26.60;46.20;;;;;;5010213;28;20216;-73
2023/11/18 03:32:41;;;;;;;5.27;1.20;;;26.30;47.20;;;;;;4993553;28;20182;-73
2023/11/18 03:35:09;;;;;;;3.73;0.80;;;26.70;46.50;;;;;;4992825;28;20273;-75
2023/11/18 03:37:42;;;;;;;3.90;1.03;;;26.50;46.70;;;;;;4986214;28;20225;-71
2023/11/18 03:40:11;;;;;;;3.17;1.00;;;26.10;46.60;;;;;;4987507;28;20205;-73
2023/11/18 03:42:48;;;;;;;3.43;1.03;;;25.50;48.10;;;;;;4992642;28;20596;-70
2023/11/18 03:45:17;;;;;;;4.77;1.20;;;25.80;47.70;;;;;;4986705;28;20177;-71
2023/11/18 03:47:45;;;;;;;4.03;1.07;;;25.90;47.50;;;;;;4993668;28;20182;-71
2023/11/18 03:50:13;;;;;;;2.90;1.00;;;26.20;46.70;;;;;;4985632;28;20182;-71
2023/11/18 03:52:40;;;;;;;5.83;1.17;;;26.40;45.70;;;;;;4991501;28;20201;-72
2023/11/18 03:55:08;;;;;;;3.00;1.10;;;26.20;45.80;;;;;;4992017;28;20248;-71
2023/11/18 03:57:36;;;;;;;3.67;0.97;;;26.10;46.50;;;;;;4991918;28;20603;-76
2023/11/18 04:00:03;;;;;;;5.80;1.23;;;25.80;46.70;;;;;;4992886;28;20189;-73
2023/11/18 04:02:31;;;;;;;3.17;1.00;;;26.10;47.10;;;;;;4991685;28;20228;-72
2023/11/18 04:04:58;;;;;;;3.93;1.20;;;26.30;46.10;;;;;;4993294;28;20253;-72
2023/11/18 04:07:25;;;;;;;4.73;1.23;;;25.90;45.90;;;;;;4990839;28;20448;-71
2023/11/18 04:09:53;;;;;;;3.53;0.80;;;25.80;47.10;;;;;;4988019;28;20196;-72
2023/11/18 04:12:21;;;;;;;4.77;1.17;;;26.30;45.10;;;;;;4978577;28;20221;-72
2023/11/18 04:14:48;;;;;;;5.77;1.10;;;26.00;46.50;;;;;;4980173;28;20664;-72
2023/11/18 04:17:15;;;;;;;2.60;0.83;;;26.80;44.20;;;;;;4996371;28;21018;-72
2023/11/18 04:19:43;;;;;;;3.77;1.13;;;26.20;45.30;;;;;;4993338;28;20563;-73
2023/11/18 04:22:10;;;;;;;5.33;1.07;;;26.70;44.70;;;;;;4993361;28;20324;-72
2023/11/18 04:24:37;;;;;;;3.50;0.90;;;27.50;43.80;;;;;;4993279;28;20186;-71
2023/11/18 04:27:04;;;;;;;5.50;0.97;;;26.80;44.10;;;;;;4979934;28;20174;-72
2023/11/18 04:29:32;;;;;;;3.80;0.87;;;26.60;44.90;;;;;;4995114;28;20257;-72
2023/11/18 04:31:59;;;;;;;2.93;0.83;;;26.60;44.50;;;;;;4992911;28;20177;-73
2023/11/18 04:34:27;;;;;;;4.17;0.80;;;26.80;42.90;;;;;;4993196;28;20189;-73
2023/11/18 04:36:54;;;;;;;8.43;1.10;;;26.20;45.40;;;;;;4992994;28;20185;-74
2023/11/18 04:39:22;;;;;;;3.40;0.93;;;26.00;45.50;;;;;;4993145;28;20186;-70
2023/11/18 04:41:50;;;;;;;4.67;1.00;;;26.70;44.00;;;;;;4977440;28;20174;-70
2023/11/18 04:44:17;;;;;;;3.50;0.87;;;26.30;44.20;;;;;;4993178;28;20236;-72
2023/11/18 04:46:45;;;;;;;4.63;1.23;;;26.20;44.40;;;;;;5003185;28;20173;-71
2023/11/18 04:49:12;;;;;;;3.77;1.00;;;26.10;45.80;;;;;;4979082;28;20174;-72
2023/11/18 04:51:39;;;;;;;3.67;0.90;;;26.80;45.20;;;;;;4993212;28;20686;-74
2023/11/18 04:54:07;;;;;;;1.97;0.83;;;26.20;46.30;;;;;;4994500;28;20186;-74
2023/11/18 04:56:35;;;;;;;2.97;0.90;;;26.20;44.60;;;;;;4993121;28;20189;-72
2023/11/18 04:59:06;;;;;;;3.20;0.90;;;25.80;44.90;;;;;;4992740;28;20222;-71
2023/11/18 05:01:33;;;;;;;3.97;0.77;;;26.40;44.60;;;;;;4992093;28;20182;-73
2023/11/18 05:04:01;;;;;;;3.33;0.60;;;26.60;44.90;;;;;;4992910;28;20178;-72
2023/11/18 05:06:28;;;;;;;2.00;0.60;;;26.80;44.00;;;;;;4992942;28;20271;-72
2023/11/18 05:08:56;;;;;;;5.00;0.83;;;26.30;44.40;;;;;;4992247;28;20196;-73
2023/11/18 05:11:23;;;;;;;3.50;1.10;;;26.20;45.10;;;;;;4992397;28;20186;-71
2023/11/18 05:13:50;;;;;;;2.87;1.10;;;26.40;44.50;;;;;;4996194;28;20189;-72
2023/11/18 05:16:18;;;;;;;2.73;0.70;;;26.60;45.00;;;;;;4988832;28;20238;-71
2023/11/18 05:18:45;;;;;;;2.57;0.70;;;26.30;45.30;;;;;;4998494;28;20217;-71
2023/11/18 05:21:12;;;;;;;2.37;0.90;;;26.00;44.90;;;;;;5002623;28;20220;-71
2023/11/18 05:23:40;;;;;;;3.10;0.73;;;25.70;45.70;;;;;;4995816;28;20190;-72
2023/11/18 05:26:08;;;;;;;3.37;0.90;;;26.30;44.70;;;;;;4996235;28;20721;-62
2023/11/18 05:28:36;;;;;;;3.30;0.60;;;26.30;44.80;;;;;;4995543;28;20200;-65
2023/11/18 05:31:04;;;;;;;4.00;0.80;;;26.10;45.90;;;;;;4994503;28;20182;-62
2023/11/18 05:33:34;;;;;;;2.03;0.80;;;26.50;44.70;;;;;;4995035;28;20193;-64
2023/11/18 05:36:01;;;;;;;5.70;0.90;;;26.10;45.10;;;;;;4992889;28;20185;-62
2023/11/18 05:38:32;;;;;;;3.97;0.90;;;25.70;46.40;;;;;;4995076;28;20778;-65
2023/11/18 05:41:01;;;;;;;3.17;0.70;;;25.80;47.30;;;;;;4994187;28;20178;-70
2023/11/18 05:43:40;;;;;;;5.90;1.17;;;25.80;46.90;;;;;;4989252;28;20272;-62
2023/11/18 05:46:22;;;;;;;3.43;0.77;;;26.30;46.50;;;;;;4990604;28;20194;-61
2023/11/18 05:48:50;;;;;;;3.03;0.90;;;25.80;46.50;;;;;;4996486;28;20644;-72
2023/11/18 05:51:22;;;;;;;2.20;0.77;;;25.50;47.10;;;;;;5004727;28;20185;-75
2023/11/18 05:53:51;;;;;;;4.60;0.60;;;25.80;45.80;;;;;;4996022;28;20186;-63
2023/11/18 05:56:22;;;;;;;6.53;1.30;;;25.60;46.30;;;;;;4993761;28;20236;-67
2023/11/18 05:58:49;;;;;;;2.70;0.90;;;26.10;45.90;;;;;;4999848;28;20338;-64
2023/11/18 06:01:17;;;;;;;2.63;0.90;;;26.10;44.90;;;;;;5002913;28;20196;-61
2023/11/18 06:03:45;;;;;;;3.53;0.97;;;25.60;46.50;;;;;;4999474;28;20216;-62
2023/11/18 06:06:16;;;;;;;3.60;0.73;;;25.70;47.00;;;;;;4996757;28;20185;-70
2023/11/18 06:08:44;;;;;;;4.93;0.90;;;25.50;47.70;;;;;;4996419;28;20188;-64
2023/11/18 06:11:15;;;;;;;4.20;1.10;;;26.40;46.10;;;;;;4973599;28;20641;-65
2023/11/18 06:13:47;;;;;;;2.93;0.93;;;26.40;45.80;;;;;;4989466;28;20186;-72
2023/11/18 06:16:21;;;;;;;4.83;1.13;;;26.60;45.20;;;;;;4993062;28;20299;-62
2023/11/18 06:18:50;;;;;;;2.50;0.90;;;26.00;45.90;;;;;;5001601;28;20309;-63
2023/11/18 06:21:26;;;;;;;2.67;0.80;;;26.10;45.20;;;;;;4994693;28;20194;-72
2023/11/18 06:23:54;;;;;;;4.17;0.80;;;26.00;46.50;;;;;;4993979;28;20639;-65
2023/11/18 06:26:22;;;;;;;3.67;1.07;;;25.30;46.50;;;;;;4994044;28;20186;-62
2023/11/18 06:28:49;;;;;;;4.57;1.00;;;25.60;47.20;;;;;;4993905;28;20632;-67
2023/11/18 06:31:17;;;;;;;2.13;1.00;;;25.90;47.30;;;;;;4993879;28;20182;-64
2023/11/18 06:33:45;;;;;;;7.10;1.10;;;26.30;46.60;;;;;;4994458;28;20186;-67
2023/11/18 06:36:21;;;;;;;3.97;1.20;;;25.90;46.80;;;;;;4996786;28;20646;-75
2023/11/18 06:38:53;;;;;;;3.50;1.00;;;25.90;46.60;;;;;;4981254;28;20685;-62
2023/11/18 06:41:48;;;;;;;5.33;1.00;;;25.20;48.20;;;;;;4994207;28;20182;-64
2023/11/18 06:44:17;;;;;;;3.13;0.73;;;25.70;47.20;;;;;;4988653;28;20186;-75
2023/11/18 06:46:45;;;;;;;4.47;1.30;;;25.60;47.30;;;;;;5000232;28;20197;-71
2023/11/18 06:49:15;;;;;;;3.83;0.90;;;25.50;48.10;;;;;;4974034;28;20267;-73
2023/11/18 06:51:42;;;;;;;2.83;0.90;;;24.90;49.00;;;;;;4993818;28;20245;-64
2023/11/18 06:54:10;;;;;;;4.10;0.90;;;24.60;49.90;;;;;;4996935;28;20179;-63
2023/11/18 06:56:44;;;;;;;2.73;1.03;;;24.80;49.30;;;;;;4992719;28;20205;-68
2023/11/18 06:59:15;;;;;;;3.37;1.00;;;25.00;49.30;;;;;;4992593;28;20679;-62
2023/11/18 07:01:43;;;;;;;4.00;1.03;;;25.20;49.10;;;;;;4992208;28;20622;-67
2023/11/18 07:04:11;;;;;;;5.40;1.13;;;24.70;49.00;;;;;;4991428;28;20707;-64
2023/11/18 07:06:39;;;;;;;3.20;1.10;;;24.80;49.70;;;;;;4992646;28;20720;-66
2023/11/18 07:09:28;;;;;;;3.53;1.03;;;24.60;49.80;;;;;;4991224;28;20193;-70
2023/11/18 07:11:56;;;;;;;3.57;0.80;;;24.30;50.10;;;;;;4992408;28;20209;-68
2023/11/18 07:14:25;;;;;;;3.93;1.07;;;23.50;52.50;;;;;;4991704;28;20189;-73
2023/11/18 07:16:53;;;;;;;5.27;1.23;;;23.10;52.60;;;;;;4991196;28;20234;-69
2023/11/18 07:19:20;;;;;;;6.40;1.03;;;22.80;54.60;;;;;;4993142;28;20331;-68
2023/11/18 07:21:49;;;;;;;6.77;1.53;;;22.70;54.60;;;;;;4993474;28;20190;-71
2023/11/18 07:24:17;;;;;;;5.90;1.20;;;22.60;54.90;;;;;;4991169;28;23243;-70
2023/11/18 07:26:45;;;;;;;3.77;1.03;;;22.20;55.50;;;;;;4992191;28;20192;-71
2023/11/18 07:29:12;;;;;;;4.37;1.30;;;21.90;56.30;;;;;;4989341;28;20188;-68
2023/11/18 07:31:39;;;;;;;3.90;1.00;;;21.90;56.90;;;;;;4989664;28;20185;-71
2023/11/18 07:34:06;;;;;;;9.70;1.80;;;21.80;57.60;;;;;;4991105;28;20186;-69
2023/11/18 07:36:34;;;;;;;4.57;1.60;;;21.70;58.40;;;;;;4989443;28;20181;-71
2023/11/18 07:39:02;;;;;;;6.90;2.10;;;21.70;58.60;;;;;;4991420;28;20360;-70
2023/11/18 07:41:31;;;;;;;6.63;2.53;;;21.60;58.70;;;;;;4989196;28;20194;-69
2023/11/18 07:43:58;;;;;;;5.53;1.40;;;21.60;58.80;;;;;;4990603;28;20655;-67
2023/11/18 07:46:30;;;;;;;6.90;1.33;;;21.30;59.70;;;;;;4989327;28;20193;-66
2023/11/18 07:48:57;;;;;;;4.83;1.10;;;21.30;59.90;;;;;;4992119;28;20682;-68
2023/11/18 07:51:25;;;;;;;4.30;1.70;;;21.20;60.40;;;;;;4993106;28;20174;-69
2023/11/18 07:53:55;;;;;;;12.20;1.70;;;21.10;60.60;;;;;;4979908;28;20241;-69
2023/11/18 07:56:22;;;;;;;4.77;1.13;;;21.00;61.20;;;;;;4988479;28;20201;-69
2023/11/18 07:58:51;;;;;;;5.53;1.57;;;20.90;61.90;;;;;;4992243;28;20230;-68
2023/11/18 08:01:21;;;;;;;5.83;1.67;;;21.00;62.40;;;;;;4993141;28;20712;-69
2023/11/18 08:03:49;;;;;;;3.80;1.43;;;20.90;62.70;;;;;;4993300;28;20186;-70
2023/11/18 08:06:18;;;;;;;5.50;1.43;;;20.80;62.70;;;;;;4989571;28;20182;-70
2023/11/18 08:08:45;;;;;;;5.13;1.63;;;20.80;62.50;;;;;;4993224;28;20213;-70
2023/11/18 08:11:13;;;;;;;5.10;1.43;;;20.80;62.80;;;;;;4992999;28;20174;-72
2023/11/18 08:13:40;;;;;;;6.27;1.33;;;20.80;62.10;;;;;;4993356;28;20244;-71
2023/11/18 08:16:08;;;;;;;5.47;1.70;;;20.70;62.80;;;;;;4992118;28;20769;-70
2023/11/18 08:18:36;;;;;;;7.13;1.47;;;20.60;63.60;;;;;;4992630;28;20206;-69
2023/11/18 08:21:06;;;;;;;7.60;1.37;;;20.60;63.90;;;;;;4992939;28;20170;-72
2023/11/18 08:23:33;;;;;;;6.57;1.10;;;20.50;63.20;;;;;;4993243;28;20251;-70
2023/11/18 08:26:01;;;;;;;4.50;1.20;;;20.50;63.50;;;;;;4993058;28;20189;-69
2023/11/18 08:28:28;;;;;;;6.43;1.47;;;20.40;64.10;;;;;;4992971;28;20182;-64
2023/11/18 08:30:56;;;;;;;8.07;1.50;;;20.30;64.10;;;;;;4992614;28;20178;-70
2023/11/18 08:33:26;;;;;;;6.27;1.40;;;20.30;64.60;;;;;;4993111;28;20174;-70
2023/11/18 08:35:53;;;;;;;5.97;1.20;;;20.30;64.90;;;;;;4993251;28;20571;-70
2023/11/18 08:38:20;;;;;;;4.63;1.40;;;20.20;64.90;;;;;;4991899;28;20205;-70
2023/11/18 08:40:50;;;;;;;3.63;1.37;;;20.10;64.50;;;;;;4992939;28;20189;-69
2023/11/18 08:43:21;;;;;;;11.97;1.93;;;20.10;64.70;;;;;;4992949;28;20196;-69
2023/11/18 08:45:50;;;;;;;6.03;1.20;;;20.10;65.30;;;;;;4992834;28;20178;-73
2023/11/18 08:48:22;;;;;;;4.83;1.40;;;20.10;65.40;;;;;;4996489;28;20586;-70
2023/11/18 08:50:51;;;;;;;7.13;1.40;;;20.00;65.80;;;;;;4996557;28;20178;-68
2023/11/18 08:53:20;;;;;;;4.40;1.30;;;20.00;66.20;;;;;;4993300;28;20645;-67
2023/11/18 08:55:56;;;;;;;9.20;1.77;;;20.00;66.50;;;;;;4986882;28;20182;-68
2023/11/18 08:58:34;;;;;;;4.97;1.30;;;19.90;66.50;;;;;;4963863;28;20206;-69
2023/11/18 09:01:23;;;;;;;4.87;1.50;;;19.90;66.60;;;;;;4981739;28;20229;-67
2023/11/18 09:03:52;;;;;;;5.83;1.57;;;19.90;65.90;;;;;;4996000;28;20222;-66
2023/11/18 09:06:25;;;;;;;4.60;1.27;;;19.80;65.40;;;;;;4996390;28;20704;-70
2023/11/18 09:08:54;;;;;;;5.90;1.40;;;19.80;65.20;;;;;;4981036;28;20194;-67
2023/11/18 09:11:24;;;;;;;4.80;1.20;;;19.80;65.00;;;;;;4992493;28;20185;-66
2023/11/18 09:13:59;;;;;;;5.20;1.20;;;19.80;65.40;;;;;;4996659;28;20512;-69
2023/11/18 09:16:30;;;;;;;9.07;1.40;;;19.80;65.60;;;;;;4995707;28;20292;-68
2023/11/18 09:19:02;;;;;;;3.57;1.13;;;19.80;65.80;;;;;;4996281;28;20668;-70
2023/11/18 09:21:32;;;;;;;7.23;1.73;;;19.80;65.80;;;;;;4996300;28;20201;-69
2023/11/18 09:24:04;;;;;;;9.17;2.03;;;19.80;66.10;;;;;;4995264;28;20667;-68
2023/11/18 09:26:32;;;;;;;3.53;1.17;;;19.80;65.50;;;;;;4996164;28;20181;-71
2023/11/18 09:29:01;;;;;;;2.80;1.10;;;19.80;65.40;;;;;;4995739;28;20273;-69
2023/11/18 09:31:28;;;;;;;4.43;1.27;;;19.80;65.60;;;;;;4995852;28;20569;-70
2023/11/18 09:33:57;;;;;;;5.93;1.40;;;19.80;65.90;;;;;;4996168;28;20175;-71
2023/11/18 09:36:28;;;;;;;7.27;1.53;;;19.80;66.40;;;;;;4995886;28;20197;-67
2023/11/18 09:38:56;;;;;;;5.40;1.57;;;19.70;66.50;;;;;;4995357;28;20209;-71
2023/11/18 09:41:26;;;;;;;6.07;1.80;;;19.70;66.70;;;;;;4995479;28;20178;-73
2023/11/18 09:43:56;;;;;;;4.63;1.17;;;19.70;67.10;;;;;;4995906;28;20222;-68
2023/11/18 09:46:26;;;;;;;3.90;1.27;;;19.70;66.40;;;;;;4991409;28;20281;-71
2023/11/18 09:49:15;;;;;;;10.13;1.87;;;19.70;66.50;;;;;;4994315;28;20682;-71
2023/11/18 09:51:47;;;;;;;5.63;1.53;;;19.70;66.20;;;;;;4994290;28;20532;-67
2023/11/18 09:54:43;;;;;;;7.70;1.43;;;19.70;66.00;;;;;;4993189;28;20197;-71
2023/11/18 09:57:41;;;;;;;6.30;1.70;;;19.70;66.00;;;;;;4987857;28;20284;-71
2023/11/18 10:00:20;;;;;;;5.40;1.57;;;19.70;65.40;;;;;;4979545;28;20253;-68
2023/11/18 10:02:50;;;;;;;5.30;1.23;;;19.70;65.60;;;;;;4995306;28;20185;-71
2023/11/18 10:05:22;;;;;;;10.40;1.93;;;19.70;65.90;;;;;;4995748;28;20181;-70
2023/11/18 10:07:50;;;;;;;8.07;1.67;;;19.70;66.50;;;;;;4995518;28;20264;-71
2023/11/18 10:10:20;;;;;;;7.67;1.30;;;19.60;66.80;;;;;;4978197;28;20632;-70
2023/11/18 10:12:52;;;;;;;6.73;1.37;;;19.70;66.10;;;;;;4994961;28;20182;-72
2023/11/18 10:15:25;;;;;;;4.00;1.40;;;19.60;66.00;;;;;;4994366;28;20229;-70
2023/11/18 10:18:09;;;;;;;7.40;1.90;;;19.60;66.50;;;;;;4995007;28;20344;-70
2023/11/18 10:20:47;;;;;;;5.70;1.27;;;19.60;66.50;;;;;;4995093;28;20185;-68
2023/11/18 10:23:21;;;;;;;5.73;1.40;;;19.60;67.20;;;;;;4994061;28;20189;-68
2023/11/18 10:25:53;;;;;;;5.87;1.50;;;19.60;67.20;;;;;;4982329;28;20182;-66
2023/11/18 10:28:27;;;;;;;7.30;2.10;;;19.60;67.40;;;;;;4994051;28;20192;-67
2023/11/18 10:31:03;;;;;;;6.30;1.50;;;19.60;67.80;;;;;;4992903;28;20241;-66
2023/11/18 10:33:37;;;;;;;3.80;1.50;;;19.50;68.00;;;;;;4986490;28;20403;-65
2023/11/18 10:36:12;;;;;;;5.10;1.43;;;19.50;68.10;;;;;;4993488;28;20186;-71
2023/11/18 10:38:46;;;;;;;9.17;1.63;;;19.60;68.10;;;;;;4985167;28;20213;-69
2023/11/18 10:41:14;;;;;;;9.00;1.97;;;19.50;67.90;;;;;;4992030;28;20182;-71
2023/11/18 10:43:41;;;;;;;6.73;1.77;;;19.60;67.30;;;;;;4991623;28;20221;-71
2023/11/18 10:46:16;;;;;;;4.13;1.30;;;19.50;67.30;;;;;;4992741;28;20182;-70
2023/11/18 10:48:51;;;;;;;8.40;2.17;;;19.50;67.60;;;;;;4992598;28;20700;-70
2023/11/18 10:51:20;;;;;;;7.90;1.53;;;19.40;67.20;;;;;;4992882;28;20220;-70
2023/11/18 10:54:00;;;;;;;6.90;1.70;;;19.40;66.90;;;;;;4993024;28;20708;-66
2023/11/18 10:56:28;;;;;;;6.87;1.80;;;19.50;67.10;;;;;;4994386;28;20244;-66
2023/11/18 10:59:07;;;;;;;8.43;1.53;;;19.50;66.90;;;;;;4994057;28;20206;-67
2023/11/18 11:01:44;;;;;;;6.10;2.00;;;19.40;66.80;;;;;;4992024;28;20178;-66
2023/11/18 11:04:20;;;;;;;6.53;1.60;;;19.50;66.90;;;;;;4993480;28;20201;-66
2023/11/18 11:06:56;;;;;;;7.63;1.37;;;19.40;67.10;;;;;;4991284;28;20273;-66
2023/11/18 11:09:28;;;;;;;7.00;1.70;;;19.40;67.20;;;;;;4992603;28;20182;-72
2023/11/18 11:12:07;;;;;;;11.53;1.57;;;19.40;67.40;;;;;;4993600;28;20197;-68
2023/11/18 11:14:41;;;;;;;4.30;1.20;;;19.40;67.70;;;;;;4990593;28;20268;-67
2023/11/18 11:17:14;;;;;;;5.27;1.60;;;19.40;67.90;;;;;;4989341;28;21134;-67
2023/11/18 11:19:55;;;;;;;6.43;1.73;;;19.30;67.50;;;;;;4993975;28;20723;-71
2023/11/18 11:22:32;;;;;;;10.07;2.03;;;19.30;67.60;;;;;;4992348;28;20184;-70
2023/11/18 11:25:25;;;;;;;5.57;1.50;;;19.30;67.60;;;;;;4993849;28;20192;-68
2023/11/18 11:28:22;;;;;;;7.60;1.80;;;19.30;67.50;;;;;;4988462;28;20191;-66
2023/11/18 11:31:25;;;;;;;5.43;1.50;;;19.30;67.60;;;;;;4960975;28;20232;-70
2023/11/18 11:34:13;;;;;;;4.90;1.70;;;19.30;67.30;;;;;;4990470;28;20201;-68
2023/11/18 11:36:52;;;;;;;9.57;2.00;;;19.30;67.40;;;;;;4993659;28;20185;-70
2023/11/18 11:39:30;;;;;;;7.77;1.63;;;19.30;67.50;;;;;;4993696;28;20217;-70
2023/11/18 11:42:02;;;;;;;9.53;1.97;;;19.30;67.90;;;;;;4975188;28;20202;-66
2023/11/18 11:44:30;;;;;;;6.03;1.50;;;19.30;67.90;;;;;;4991768;28;20178;-70
2023/11/18 11:47:00;;;;;;;6.33;1.50;;;19.30;68.00;;;;;;4990605;28;20244;-70
2023/11/18 11:49:36;;;;;;;9.60;1.70;;;19.30;68.00;;;;;;4989574;28;20184;-69
2023/11/18 11:52:10;;;;;;;5.30;1.53;;;19.20;68.00;;;;;;4993120;28;20282;-66
2023/11/18 11:54:56;;;;;;;7.40;1.50;;;19.20;68.20;;;;;;4979499;28;20194;-66
2023/11/18 11:57:27;;;;;;;6.53;1.33;;;19.20;68.10;;;;;;4992658;28;20193;-67
2023/11/18 11:59:56;;;;;;;5.80;1.57;;;19.20;68.20;;;;;;4992804;28;20585;-69
2023/11/18 12:02:28;;;;;;;8.70;1.40;;;19.20;68.50;;;;;;4993240;28;20174;-66
2023/11/18 12:04:59;;;;;;;8.50;2.00;;;19.20;68.70;;;;;;4993245;28;20186;-69
2023/11/18 12:07:27;;;;;;;9.73;2.00;;;19.20;68.80;;;;;;4993349;28;20579;-69
2023/11/18 12:10:06;;;;;;;7.17;1.90;;;19.20;68.80;;;;;;4993036;28;20236;-70
2023/11/18 12:12:33;;;;;;;8.73;1.93;;;19.10;69.00;;;;;;4993513;28;20202;-69
2023/11/18 12:15:17;;;;;;;6.30;1.53;;;19.20;69.10;;;;;;4992985;28;20182;-69
2023/11/18 12:17:58;;;;;;;8.10;1.60;;;19.10;69.10;;;;;;4992091;28;20738;-70
2023/11/18 12:21:04;;;;;;;5.97;1.60;;;19.10;69.30;;;;;;4996170;28;20185;-70
2023/11/18 12:23:34;;;;;;;8.43;1.37;;;19.10;69.20;;;;;;4987456;28;20265;-72
2023/11/18 12:26:02;;;;;;;7.93;1.50;;;19.10;69.30;;;;;;4997299;28;20579;-70
2023/11/18 12:28:34;;;;;;;4.67;1.47;;;19.10;69.40;;;;;;4997154;28;20640;-70
2023/11/18 12:31:06;;;;;;;7.00;1.57;;;19.00;69.40;;;;;;4996950;28;20185;-68
2023/11/18 12:33:51;;;;;;;9.03;1.67;;;19.00;69.30;;;;;;4997191;28;20232;-69
2023/11/18 12:36:58;;;;;;;5.37;1.70;;;19.00;69.50;;;;;;4996859;28;20212;-69
2023/11/18 12:39:43;;;;;;;7.87;1.30;;;19.00;69.60;;;;;;4969237;28;20217;-69
2023/11/18 12:42:20;;;;;;;7.43;1.67;;;18.90;69.80;;;;;;4997060;28;20640;-67
2023/11/18 12:45:17;;;;;;;8.20;1.60;;;18.90;70.10;;;;;;4997013;28;20177;-68
2023/11/18 12:47:48;;;;;;;5.80;1.43;;;18.80;70.30;;;;;;4987538;28;20178;-66
2023/11/18 12:50:24;;;;;;;11.67;2.00;;;18.80;70.50;;;;;;4993300;28;20178;-66
2023/11/18 12:52:54;;;;;;;7.17;1.40;;;18.80;70.50;;;;;;4982171;28;20233;-67
2023/11/18 12:55:22;;;;;;;6.80;1.70;;;18.80;70.60;;;;;;4985158;28;20178;-66
2023/11/18 12:57:53;;;;;;;5.27;1.47;;;18.80;70.60;;;;;;4996413;28;20206;-67
2023/11/18 13:00:27;;;;;;;8.60;1.50;;;18.80;70.70;;;;;;4996407;28;20190;-67
2023/11/18 13:02:57;;;;;;;6.23;1.80;;;18.70;70.70;;;;;;4992372;28;20185;-69
2023/11/18 13:05:29;;;;;;;6.20;1.70;;;18.70;70.90;;;;;;4986334;28;20182;-68